createdAt,value
2023-04-09T00:03:22.580Z,96158.00
2023-04-09T00:07:26.155Z,96152.00
2023-04-09T00:11:28.986Z,96165.00
2023-04-09T00:15:33.326Z,96148.00
2023-04-09T00:19:36.441Z,96149.00
2023-04-09T00:23:39.285Z,96150.00
2023-04-09T00:27:42.173Z,96149.00
2023-04-09T00:31:46.523Z,96154.00
2023-04-09T00:35:49.457Z,96159.00
2023-04-09T00:39:52.404Z,96145.00
2023-04-09T00:43:57.356Z,96149.00
2023-04-09T00:48:02.084Z,96152.00
2023-04-09T00:52:06.007Z,96151.00
2023-04-09T00:56:09.156Z,96142.00
2023-04-09T01:00:13.180Z,96151.00
2023-04-09T01:04:17.685Z,96142.00
2023-04-09T01:08:32.789Z,96137.00
2023-04-09T01:12:41.154Z,96143.00
2023-04-09T01:16:48.897Z,96148.00
2023-04-09T01:20:59.417Z,96140.00
2023-04-09T01:25:08.579Z,96138.00
2023-04-09T01:29:22.556Z,96133.00
2023-04-09T01:33:26.521Z,96134.00
2023-04-09T01:37:30.052Z,96136.00
2023-04-09T01:41:34.477Z,96130.00
2023-04-09T01:45:39.615Z,96136.00
2023-04-09T01:49:43.795Z,96140.00
2023-04-09T01:53:47.317Z,96138.00
2023-04-09T01:57:50.323Z,96141.00
2023-04-09T02:01:59.330Z,96135.00
2023-04-09T02:06:08.804Z,96133.00
2023-04-09T02:10:12.720Z,96141.00
2023-04-09T02:14:17.157Z,96139.00
2023-04-09T02:18:27.307Z,96138.00
2023-04-09T02:22:30.452Z,96134.00
2023-04-09T02:26:33.442Z,96136.00
2023-04-09T02:30:36.421Z,96130.00
2023-04-09T02:34:40.714Z,96136.00
2023-04-09T02:38:44.011Z,96123.00
2023-04-09T02:42:46.911Z,96127.00
2023-04-09T02:46:49.909Z,96132.00
2023-04-09T02:50:54.182Z,96118.00
2023-04-09T02:54:57.295Z,96115.00
2023-04-09T02:59:00.180Z,96111.00
2023-04-09T03:03:03.190Z,96114.00
2023-04-09T03:07:07.516Z,96111.00
2023-04-09T03:11:10.395Z,96112.00
2023-04-09T03:15:13.938Z,96110.00
2023-04-09T03:19:17.041Z,96108.00
2023-04-09T03:23:21.754Z,96110.00
2023-04-09T03:27:24.698Z,96110.00
2023-04-09T03:31:33.141Z,96108.00
2023-04-09T03:35:36.224Z,96101.00
2023-04-09T03:39:40.863Z,96099.00
2023-04-09T03:43:44.147Z,96110.00
2023-04-09T03:47:49.829Z,96108.00
2023-04-09T03:51:54.857Z,96099.00
2023-04-09T03:56:01.798Z,96102.00
2023-04-09T04:00:06.265Z,96107.00
2023-04-09T04:04:26.319Z,96103.00
2023-04-09T04:08:33.639Z,96112.00
2023-04-09T04:12:38.268Z,96107.00
2023-04-09T04:16:48.166Z,96130.00
2023-04-09T04:20:55.209Z,96138.00
2023-04-09T04:24:58.235Z,96128.00
2023-04-09T04:29:03.050Z,96142.00
2023-04-09T04:33:25.002Z,96142.00
2023-04-09T04:37:30.603Z,96141.00
2023-04-09T04:41:35.948Z,96135.00
2023-04-09T04:45:46.586Z,96142.00
2023-04-09T04:49:49.970Z,96128.00
2023-04-09T04:53:53.373Z,96134.00
2023-04-09T04:57:56.244Z,96135.00
2023-04-09T05:02:04.709Z,96128.00
2023-04-09T05:06:14.265Z,96135.00
2023-04-09T05:10:20.561Z,96122.00
2023-04-09T05:14:24.185Z,96129.00
2023-04-09T05:18:28.821Z,96125.00
2023-04-09T05:22:31.741Z,96137.00
2023-04-09T05:26:34.808Z,96130.00
2023-04-09T05:30:38.790Z,96147.00
2023-04-09T05:34:44.979Z,96141.00
2023-04-09T05:38:48.900Z,96165.00
2023-04-09T05:42:51.868Z,96171.00
2023-04-09T05:47:03.426Z,96171.00
2023-04-09T05:51:15.552Z,96155.00
2023-04-09T05:55:18.673Z,96178.00
2023-04-09T05:59:30.128Z,96179.00
2023-04-09T06:03:33.395Z,96184.00
2023-04-09T06:07:38.584Z,96190.00
2023-04-09T06:11:41.519Z,96192.00
2023-04-09T06:15:44.469Z,96198.00
2023-04-09T06:19:49.050Z,96198.00
2023-04-09T06:23:53.543Z,96187.00
2023-04-09T06:27:56.918Z,96199.00
2023-04-09T06:31:59.789Z,96204.00
2023-04-09T06:36:02.873Z,96202.00
2023-04-09T06:40:08.607Z,96208.00
2023-04-09T06:44:11.584Z,96215.00
2023-04-09T06:48:14.440Z,96223.00
2023-04-09T06:52:17.370Z,96234.00
2023-04-09T06:56:21.950Z,96228.00
2023-04-09T07:00:24.919Z,96233.00
2023-04-09T07:04:28.166Z,96243.00
2023-04-09T07:08:31.190Z,96246.00
2023-04-09T07:12:36.069Z,96243.00
2023-04-09T07:16:38.947Z,96244.00
2023-04-09T07:20:41.950Z,96245.00
2023-04-09T07:24:44.827Z,96249.00
2023-04-09T07:28:49.147Z,96249.00
2023-04-09T07:32:51.873Z,96261.00
2023-04-09T07:36:55.685Z,96256.00
2023-04-09T07:40:58.634Z,96266.00
2023-04-09T07:45:03.516Z,96262.00
2023-04-09T07:49:06.786Z,96261.00
2023-04-09T07:53:09.586Z,96258.00
2023-04-09T07:57:12.429Z,96262.00
2023-04-09T08:01:16.595Z,96261.00
2023-04-09T08:05:19.564Z,96260.00
2023-04-09T08:09:22.546Z,96261.00
2023-04-09T08:13:25.630Z,96265.00
2023-04-09T08:17:29.641Z,96259.00
2023-04-09T08:21:32.604Z,96266.00
2023-04-09T08:25:35.407Z,96282.00
2023-04-09T08:29:40.518Z,96278.00
2023-04-09T08:33:44.648Z,96279.00
2023-04-09T08:37:47.681Z,96283.00
2023-04-09T08:41:52.764Z,96295.00
2023-04-09T08:45:57.983Z,96305.00
2023-04-09T08:50:02.192Z,96307.00
2023-04-09T08:54:05.354Z,96300.00
2023-04-09T08:58:09.474Z,96303.00
2023-04-09T09:02:12.876Z,96312.00
2023-04-09T09:06:23.611Z,96311.00
2023-04-09T09:10:38.617Z,96301.00
2023-04-09T09:14:41.378Z,96298.00
2023-04-09T09:18:45.430Z,96298.00
2023-04-09T09:22:55.058Z,96303.00
2023-04-09T09:26:58.893Z,96313.00
2023-04-09T09:31:09.317Z,96318.00
2023-04-09T09:35:12.260Z,96312.00
2023-04-09T09:39:17.834Z,96311.00
2023-04-09T09:43:21.510Z,96298.00
2023-04-09T09:47:25.350Z,96307.00
2023-04-09T09:51:28.912Z,96304.00
2023-04-09T09:55:34.642Z,96308.00
2023-04-09T09:59:41.679Z,96303.00
2023-04-09T10:03:45.567Z,96302.00
2023-04-09T10:07:49.656Z,96304.00
2023-04-09T10:11:56.021Z,96294.00
2023-04-09T10:15:59.800Z,96302.00
2023-04-09T10:20:11.517Z,96300.00
2023-04-09T10:24:15.970Z,96301.00
2023-04-09T10:28:20.406Z,96299.00
2023-04-09T10:32:26.602Z,96304.00
2023-04-09T10:36:32.351Z,96299.00
2023-04-09T10:40:35.414Z,96300.00
2023-04-09T10:44:41.586Z,96302.00
2023-04-09T10:48:44.327Z,96301.00
2023-04-09T10:52:47.496Z,96306.00
2023-04-09T10:57:11.303Z,96303.00
2023-04-09T11:01:22.585Z,96305.00
2023-04-09T11:05:35.555Z,96296.00
2023-04-09T11:09:38.796Z,96291.00
2023-04-09T11:13:43.128Z,96287.00
2023-04-09T11:17:47.605Z,96296.00
2023-04-09T11:21:51.240Z,96291.00
2023-04-09T11:25:55.263Z,96292.00
2023-04-09T11:29:58.336Z,96288.00
2023-04-09T11:34:02.611Z,96294.00
2023-04-09T11:38:09.412Z,96292.00
2023-04-09T11:42:15.159Z,96296.00
2023-04-09T11:46:18.538Z,96290.00
2023-04-09T11:50:23.321Z,96300.00
2023-04-09T11:54:26.277Z,96299.00
2023-04-09T11:58:29.442Z,96302.00
2023-04-09T12:02:32.635Z,96300.00
2023-04-09T12:06:41.812Z,96310.00
2023-04-09T12:10:45.440Z,96297.00
2023-04-09T12:14:48.559Z,96302.00
2023-04-09T12:18:55.723Z,96303.00
2023-04-09T12:23:01.312Z,96302.00
2023-04-09T12:27:04.195Z,96294.00
2023-04-09T12:31:10.832Z,96297.00
2023-04-09T12:35:14.529Z,96299.00
2023-04-09T12:39:20.816Z,96296.00
2023-04-09T12:43:23.676Z,96291.00
2023-04-09T12:47:27.506Z,96292.00
2023-04-09T12:51:30.721Z,96295.00
2023-04-09T12:55:35.289Z,96293.00
2023-04-09T12:59:38.129Z,96285.00
2023-04-09T13:03:41.475Z,96273.00
2023-04-09T13:07:45.096Z,96286.00
2023-04-09T13:11:49.284Z,96284.00
2023-04-09T13:15:52.254Z,96286.00
2023-04-09T13:19:55.163Z,96285.00
2023-04-09T13:23:58.007Z,96291.00
2023-04-09T13:28:02.164Z,96283.00
2023-04-09T13:32:07.242Z,96291.00
2023-04-09T13:36:10.527Z,96287.00
2023-04-09T13:40:14.003Z,96276.00
2023-04-09T13:44:18.366Z,96278.00
2023-04-09T13:48:21.638Z,96272.00
2023-04-09T13:52:26.779Z,96274.00
2023-04-09T13:56:32.445Z,96287.00
2023-04-09T14:00:37.218Z,96282.00
2023-04-09T14:04:40.254Z,96275.00
2023-04-09T14:08:43.172Z,96265.00
2023-04-09T14:12:46.090Z,96262.00
2023-04-09T14:16:50.368Z,96259.00
2023-04-09T14:20:53.576Z,96252.00
2023-04-09T14:24:56.473Z,96263.00
2023-04-09T14:28:59.288Z,96259.00
2023-04-09T14:33:04.765Z,96264.00
2023-04-09T14:37:07.583Z,96253.00
2023-04-09T14:41:10.478Z,96250.00
2023-04-09T14:45:13.279Z,96248.00
2023-04-09T14:49:17.397Z,96254.00
2023-04-09T14:53:20.209Z,96245.00
2023-04-09T14:57:23.065Z,96247.00
2023-04-09T15:01:27.404Z,96251.00
2023-04-09T15:05:31.707Z,96251.00
2023-04-09T15:09:34.691Z,96241.00
2023-04-09T15:13:37.503Z,96247.00
2023-04-09T15:17:40.494Z,96233.00
2023-04-09T15:21:44.706Z,96233.00
2023-04-09T15:25:47.481Z,96239.00
2023-04-09T15:29:50.345Z,96230.00
2023-04-09T15:33:53.126Z,96233.00
2023-04-09T15:37:57.628Z,96235.00
2023-04-09T15:42:01.850Z,96222.00
2023-04-09T15:46:09.855Z,96227.00
2023-04-09T15:50:13.075Z,96223.00
2023-04-09T15:54:17.270Z,96231.00
2023-04-09T15:58:20.028Z,96230.00
2023-04-09T16:02:24.117Z,96228.00
2023-04-09T16:06:29.577Z,96231.00
2023-04-09T16:10:33.759Z,96229.00
2023-04-09T16:14:36.660Z,96231.00
2023-04-09T16:18:39.487Z,96238.00
2023-04-09T16:22:42.336Z,96223.00
2023-04-09T16:26:47.363Z,96227.00
2023-04-09T16:30:51.363Z,96229.00
2023-04-09T16:34:54.142Z,96231.00
2023-04-09T16:38:57.039Z,96227.00
2023-04-09T16:43:01.843Z,96223.00
2023-04-09T16:47:06.217Z,96228.00
2023-04-09T16:51:09.340Z,96214.00
2023-04-09T16:55:12.147Z,96218.00
2023-04-09T16:59:17.631Z,96219.00
2023-04-09T17:03:20.465Z,96222.00
2023-04-09T17:07:23.420Z,96232.00
2023-04-09T17:11:26.463Z,96219.00
2023-04-09T17:15:30.685Z,96222.00
2023-04-09T17:19:33.884Z,96221.00
2023-04-09T17:23:37.871Z,96222.00
2023-04-09T17:27:42.004Z,96228.00
2023-04-09T17:31:46.424Z,96232.00
2023-04-09T17:35:49.234Z,96234.00
2023-04-09T17:39:52.119Z,96242.00
2023-04-09T17:43:55.099Z,96236.00
2023-04-09T17:47:59.867Z,96242.00
2023-04-09T17:52:02.691Z,96233.00
2023-04-09T17:56:05.985Z,96232.00
2023-04-09T18:00:09.724Z,96234.00
2023-04-09T18:04:23.783Z,96248.00
2023-04-09T18:08:26.703Z,96245.00
2023-04-09T18:12:29.614Z,96250.00
2023-04-09T18:16:32.564Z,96247.00
2023-04-09T18:20:36.656Z,96248.00
2023-04-09T18:24:39.495Z,96250.00
2023-04-09T18:28:42.518Z,96249.00
2023-04-09T18:32:45.560Z,96253.00
2023-04-09T18:36:50.116Z,96252.00
2023-04-09T18:40:52.908Z,96263.00
2023-04-09T18:44:56.396Z,96273.00
2023-04-09T18:48:59.163Z,96274.00
2023-04-09T18:53:05.536Z,96275.00
2023-04-09T18:57:08.675Z,96287.00
2023-04-09T19:01:12.552Z,96290.00
2023-04-09T19:05:15.389Z,96286.00
2023-04-09T19:09:19.624Z,96294.00
2023-04-09T19:13:22.410Z,96297.00
2023-04-09T19:17:25.342Z,96301.00
2023-04-09T19:21:28.813Z,96295.00
2023-04-09T19:25:34.093Z,96294.00
2023-04-09T19:29:37.217Z,96296.00
2023-04-09T19:33:40.017Z,96304.00
2023-04-09T19:37:42.856Z,96302.00
2023-04-09T19:41:47.018Z,96301.00
2023-04-09T19:45:49.763Z,96300.00
2023-04-09T19:49:52.612Z,96304.00
2023-04-09T19:53:55.482Z,96301.00
2023-04-09T19:57:59.881Z,96295.00
2023-04-09T20:02:02.791Z,96293.00
2023-04-09T20:06:08.506Z,96294.00
2023-04-09T20:10:11.780Z,96295.00
2023-04-09T20:14:15.970Z,96297.00
2023-04-09T20:18:18.903Z,96290.00
2023-04-09T20:22:22.124Z,96286.00
2023-04-09T20:26:24.900Z,96291.00
2023-04-09T20:30:29.031Z,96286.00
2023-04-09T20:34:32.597Z,96293.00
2023-04-09T20:38:35.383Z,96285.00
2023-04-09T20:42:39.546Z,96283.00
2023-04-09T20:46:43.702Z,96281.00
2023-04-09T20:50:46.722Z,96281.00
2023-04-09T20:54:49.501Z,96292.00
2023-04-09T20:58:52.599Z,96291.00
2023-04-09T21:02:57.180Z,96302.00
2023-04-09T21:07:00.156Z,96292.00
2023-04-09T21:11:03.118Z,96279.00
2023-04-09T21:15:06.813Z,96282.00
2023-04-09T21:19:11.109Z,96284.00
2023-04-09T21:23:14.191Z,96288.00
2023-04-09T21:27:17.090Z,96288.00
2023-04-09T21:31:20.509Z,96285.00
2023-04-09T21:35:24.762Z,96287.00
2023-04-09T21:39:27.651Z,96290.00
2023-04-09T21:43:30.708Z,96287.00
2023-04-09T21:47:33.586Z,96281.00
2023-04-09T21:51:37.879Z,96288.00
2023-04-09T21:55:40.690Z,96282.00
2023-04-09T21:59:43.514Z,96290.00
2023-04-09T22:03:51.289Z,96285.00
2023-04-09T22:07:55.614Z,96283.00
2023-04-09T22:11:59.587Z,96297.00
2023-04-09T22:16:02.530Z,96297.00
2023-04-09T22:20:06.048Z,96299.00
2023-04-09T22:24:10.309Z,96289.00
2023-04-09T22:28:13.080Z,96287.00
2023-04-09T22:32:16.002Z,96298.00
2023-04-09T22:36:18.790Z,96292.00
2023-04-09T22:40:23.010Z,96297.00
2023-04-09T22:44:26.020Z,96294.00
2023-04-09T22:48:30.376Z,96287.00
2023-04-09T22:52:33.209Z,96280.00
2023-04-09T22:56:37.719Z,96289.00
2023-04-09T23:00:40.655Z,96290.00
2023-04-09T23:04:43.546Z,96284.00
2023-04-09T23:08:46.579Z,96267.00
2023-04-09T23:12:50.746Z,96271.00
2023-04-09T23:16:53.990Z,96273.00
2023-04-09T23:20:56.828Z,96267.00
2023-04-09T23:24:59.656Z,96256.00
2023-04-09T23:29:03.849Z,96263.00
2023-04-09T23:33:06.668Z,96256.00
2023-04-09T23:37:10.237Z,96254.00
2023-04-09T23:41:13.927Z,96255.00
2023-04-09T23:45:18.268Z,96248.00
2023-04-09T23:49:21.598Z,96245.00
2023-04-09T23:53:24.430Z,96248.00
2023-04-09T23:57:27.284Z,96248.00
